Time;durP1;ratioP1;P1;durP2;ratioP2;P2;SDS_P1;SDS_P2;PMS_P1;PMS_P2;Temp;Humidity;BMP_temperature;BMP_pressure;BME280_temperature;BME280_humidity;BME280_pressure;Samples;Min_cycle;Max_cycle;Signal;HPM_P1;HPM_P2
2023/07/02 00:01:56;;;;;;;6.20;2.38;;;;;;;;;;6236950;23;20166;-88
2023/07/02 00:05:01;;;;;;;3.53;2.10;;;;;;;;;;6239138;23;20289;-91
2023/07/02 00:08:07;;;;;;;4.63;2.40;;;;;;;;;;6241195;22;20186;-91
2023/07/02 00:11:13;;;;;;;3.63;2.15;;;;;;;;;;6240421;23;20153;-90
2023/07/02 00:14:18;;;;;;;3.80;2.03;;;;;;;;;;6241334;23;20224;-90
2023/07/02 01:27:48;;;;;;;4.05;2.65;;;;;;;;;;6244051;22;20211;-89
2023/07/02 01:30:53;;;;;;;7.25;2.40;;;;;;;;;;6239533;22;20151;-92
2023/07/02 01:33:59;;;;;;;4.47;2.53;;;;;;;;;;6238698;23;20162;-90
2023/07/02 01:37:05;;;;;;;7.32;2.53;;;;;;;;;;6238929;23;20197;-90
2023/07/02 01:40:10;;;;;;;5.28;2.42;;;;;;;;;;6240295;23;20193;-90
2023/07/02 01:43:17;;;;;;;4.22;2.83;;;;;;;;;;6240439;23;20330;-91
2023/07/02 01:46:21;;;;;;;7.65;2.55;;;;;;;;;;6241988;23;20158;-90
2023/07/02 01:49:26;;;;;;;6.03;2.80;;;;;;;;;;6259831;22;20282;-90
2023/07/02 01:52:33;;;;;;;5.75;2.30;;;;;;;;;;6241076;23;20167;-90
2023/07/02 01:55:40;;;;;;;3.60;2.60;;;;;;;;;;6241131;23;20249;-90
2023/07/02 01:58:49;;;;;;;9.70;2.40;;;;;;;;;;6241478;22;20194;-90
2023/07/02 02:01:54;;;;;;;6.53;2.30;;;;;;;;;;6242567;23;20167;-90
2023/07/02 02:05:00;;;;;;;3.80;2.03;;;;;;;;;;6241731;23;20258;-90
2023/07/02 02:08:05;;;;;;;2.90;1.98;;;;;;;;;;6241114;22;20167;-89
2023/07/02 02:11:10;;;;;;;4.03;2.40;;;;;;;;;;6240515;23;20166;-88
2023/07/02 02:14:16;;;;;;;6.28;2.40;;;;;;;;;;6239990;23;20182;-89
2023/07/02 02:17:26;;;;;;;3.28;2.35;;;;;;;;;;6238290;22;20301;-88
2023/07/02 02:20:53;;;;;;;5.13;2.35;;;;;;;;;;6239405;22;20150;-90
2023/07/02 02:23:58;;;;;;;7.00;2.50;;;;;;;;;;6238848;23;20269;-89
2023/07/02 02:27:06;;;;;;;9.27;2.90;;;;;;;;;;6237734;23;20204;-90
2023/07/02 02:30:13;;;;;;;4.45;2.67;;;;;;;;;;6240836;23;20150;-90
2023/07/02 02:33:18;;;;;;;5.05;2.75;;;;;;;;;;6240703;22;20246;-89
2023/07/02 02:36:24;;;;;;;4.80;2.85;;;;;;;;;;6240482;22;20182;-89
2023/07/02 02:39:29;;;;;;;4.47;2.60;;;;;;;;;;6241340;23;20220;-90
2023/07/02 02:42:34;;;;;;;4.93;2.92;;;;;;;;;;6240999;23;20167;-88
2023/07/02 02:45:42;;;;;;;4.43;2.75;;;;;;;;;;6241987;23;20495;-88
2023/07/02 02:48:47;;;;;;;4.47;2.80;;;;;;;;;;6240894;23;20210;-89
2023/07/02 02:51:52;;;;;;;8.35;3.03;;;;;;;;;;6240900;23;20246;-89
2023/07/02 02:54:57;;;;;;;7.93;2.78;;;;;;;;;;6239965;23;20182;-89
2023/07/02 02:58:24;;;;;;;9.38;2.83;;;;;;;;;;6239796;22;20171;-88
2023/07/02 03:01:32;;;;;;;5.45;2.58;;;;;;;;;;6240056;22;20166;-90
2023/07/02 03:04:39;;;;;;;5.00;2.72;;;;;;;;;;6238056;23;20170;-89
2023/07/02 03:07:45;;;;;;;7.88;3.10;;;;;;;;;;6239455;22;20169;-88
2023/07/02 03:10:50;;;;;;;5.63;2.90;;;;;;;;;;6257205;22;20232;-90
2023/07/02 03:13:59;;;;;;;5.60;2.97;;;;;;;;;;6240654;23;20626;-90
2023/07/02 03:17:07;;;;;;;5.40;2.55;;;;;;;;;;6240340;22;20199;-89
2023/07/02 03:20:13;;;;;;;7.10;2.75;;;;;;;;;;6240546;22;20175;-88
2023/07/02 03:23:22;;;;;;;13.75;3.83;;;;;;;;;;6240619;22;20212;-89
2023/07/02 03:26:28;;;;;;;4.90;3.15;;;;;;;;;;6239645;22;20186;-88
2023/07/02 03:29:33;;;;;;;8.82;3.20;;;;;;;;;;6241078;22;20178;-89
2023/07/02 03:32:39;;;;;;;5.78;3.00;;;;;;;;;;6240422;23;20562;-88
2023/07/02 03:35:44;;;;;;;5.72;3.15;;;;;;;;;;6238183;23;20249;-90
2023/07/02 03:38:49;;;;;;;9.52;3.40;;;;;;;;;;6239558;22;20207;-89
2023/07/02 03:41:54;;;;;;;4.55;2.70;;;;;;;;;;6239384;23;20218;-90
2023/07/02 03:45:00;;;;;;;6.40;2.65;;;;;;;;;;6258701;22;20213;-89
2023/07/02 03:48:07;;;;;;;4.53;3.00;;;;;;;;;;6241681;23;20166;-88
2023/07/02 03:51:14;;;;;;;6.43;2.95;;;;;;;;;;6241417;23;20217;-89
2023/07/02 03:54:19;;;;;;;6.50;2.78;;;;;;;;;;6240281;22;20158;-91
2023/07/02 04:01:06;;;;;;;5.82;3.00;;;;;;;;;;6242250;23;20216;-90
2023/07/02 04:04:12;;;;;;;4.72;3.00;;;;;;;;;;6239440;23;20162;-90
2023/07/02 04:07:18;;;;;;;4.88;2.92;;;;;;;;;;6237600;23;20171;-89
2023/07/02 04:10:24;;;;;;;6.10;2.83;;;;;;;;;;6238232;22;20610;-90
2023/07/02 04:13:29;;;;;;;4.72;2.85;;;;;;;;;;6237437;23;20170;-91
2023/07/02 04:16:43;;;;;;;8.10;3.13;;;;;;;;;;6235690;23;20626;-90
2023/07/02 04:19:50;;;;;;;7.93;2.95;;;;;;;;;;6237069;23;20171;-89
2023/07/02 04:22:55;;;;;;;5.95;2.90;;;;;;;;;;6235243;22;20170;-88
2023/07/02 04:26:00;;;;;;;8.95;3.45;;;;;;;;;;6236421;22;20293;-91
2023/07/02 04:29:04;;;;;;;9.98;3.03;;;;;;;;;;6240497;23;20170;-90
2023/07/02 04:32:10;;;;;;;7.78;3.30;;;;;;;;;;6242583;22;20170;-90
2023/07/02 04:35:17;;;;;;;7.50;3.15;;;;;;;;;;6241642;23;20230;-90
2023/07/02 04:38:22;;;;;;;5.15;3.20;;;;;;;;;;6240126;22;20197;-88
2023/07/02 04:41:29;;;;;;;10.63;3.08;;;;;;;;;;6241300;22;20166;-89
2023/07/02 04:44:35;;;;;;;4.30;2.75;;;;;;;;;;6237597;23;20218;-89
2023/07/02 04:47:40;;;;;;;4.68;3.05;;;;;;;;;;6237099;23;20170;-90
2023/07/02 04:50:46;;;;;;;5.20;2.85;;;;;;;;;;6236605;23;20232;-91
2023/07/02 04:53:51;;;;;;;6.03;2.90;;;;;;;;;;6258082;22;20170;-90
2023/07/02 04:57:28;;;;;;;7.85;3.00;;;;;;;;;;6239034;22;20178;-89
2023/07/02 05:00:33;;;;;;;11.65;3.30;;;;;;;;;;6241607;23;20166;-90
2023/07/02 05:03:39;;;;;;;6.47;3.30;;;;;;;;;;6241749;23;20165;-90
2023/07/02 05:06:45;;;;;;;5.57;3.03;;;;;;;;;;6241274;23;20175;-89
2023/07/02 05:09:52;;;;;;;8.13;3.25;;;;;;;;;;6241202;22;20166;-90
2023/07/02 05:12:57;;;;;;;7.68;3.30;;;;;;;;;;6239887;22;20170;-90
2023/07/02 05:16:10;;;;;;;8.05;2.90;;;;;;;;;;6238748;23;20170;-89
2023/07/02 05:19:17;;;;;;;4.70;2.58;;;;;;;;;;6238530;23;20225;-89
2023/07/02 05:22:24;;;;;;;6.38;3.00;;;;;;;;;;6239710;22;20211;-90
2023/07/02 05:25:32;;;;;;;10.13;2.80;;;;;;;;;;6242463;22;20154;-91
2023/07/02 05:28:37;;;;;;;7.63;2.78;;;;;;;;;;6241593;23;20194;-88
2023/07/02 05:31:42;;;;;;;4.70;2.70;;;;;;;;;;6241089;23;20510;-91
2023/07/02 05:34:47;;;;;;;7.55;2.60;;;;;;;;;;6242547;22;20639;-89
2023/07/02 05:37:54;;;;;;;3.20;2.38;;;;;;;;;;6240776;22;20277;-90
2023/07/02 05:40:59;;;;;;;4.47;2.67;;;;;;;;;;6241727;22;20214;-90
2023/07/02 05:44:04;;;;;;;4.80;2.58;;;;;;;;;;6241310;22;20225;-90
2023/07/02 05:47:10;;;;;;;4.03;2.50;;;;;;;;;;6242227;23;20174;-90
2023/07/02 05:50:15;;;;;;;3.63;2.47;;;;;;;;;;6242648;22;20166;-88
2023/07/02 05:53:22;;;;;;;7.57;2.97;;;;;;;;;;6241439;22;20182;-90
2023/07/02 05:56:33;;;;;;;3.47;2.45;;;;;;;;;;6238897;23;20190;-90
2023/07/02 05:59:39;;;;;;;4.28;2.50;;;;;;;;;;6240576;23;20159;-90
2023/07/02 06:02:44;;;;;;;4.75;2.50;;;;;;;;;;6240097;23;20670;-88
2023/07/02 06:05:50;;;;;;;6.90;2.50;;;;;;;;;;6243457;23;20352;-91
2023/07/02 06:08:57;;;;;;;4.72;2.33;;;;;;;;;;6243511;23;20171;-92
2023/07/02 06:12:04;;;;;;;7.25;2.15;;;;;;;;;;6243050;23;20165;-90
2023/07/02 06:15:10;;;;;;;4.65;2.47;;;;;;;;;;6263201;22;20209;-90
2023/07/02 06:18:17;;;;;;;5.97;2.67;;;;;;;;;;6243163;22;20198;-89
2023/07/02 06:21:22;;;;;;;4.93;2.58;;;;;;;;;;6245233;23;20166;-91
2023/07/02 06:24:28;;;;;;;6.82;2.50;;;;;;;;;;6242470;23;20162;-91
2023/07/02 06:27:33;;;;;;;5.55;2.15;;;;;;;;;;6241154;23;20888;-90
2023/07/02 06:30:39;;;;;;;6.45;2.22;;;;;;;;;;6240543;22;20248;-91
2023/07/02 06:33:44;;;;;;;6.30;2.42;;;;;;;;;;6240764;22;20150;-91
2023/07/02 06:36:50;;;;;;;4.25;2.30;;;;;;;;;;6243345;23;20177;-91
2023/07/02 06:39:57;;;;;;;3.22;1.95;;;;;;;;;;6245065;23;20170;-91
2023/07/02 06:43:03;;;;;;;3.78;2.30;;;;;;;;;;6243220;23;20170;-91
2023/07/02 06:46:11;;;;;;;3.28;2.03;;;;;;;;;;6242123;22;20155;-92
2023/07/02 06:49:16;;;;;;;3.38;2.00;;;;;;;;;;6240363;22;20171;-90
2023/07/02 06:52:21;;;;;;;4.65;2.05;;;;;;;;;;6243391;22;20178;-91
2023/07/02 13:52:12;;;;;;;10.52;5.13;;;;;;;;;;6268896;22;20206;-90
2023/07/02 13:55:20;;;;;;;10.98;5.10;;;;;;;;;;6233252;23;20170;-89
2023/07/02 13:58:48;;;;;;;9.30;4.65;;;;;;;;;;6248888;23;20193;-91
2023/07/02 14:01:56;;;;;;;8.43;4.30;;;;;;;;;;6250881;23;20161;-92
2023/07/02 14:05:01;;;;;;;8.50;4.63;;;;;;;;;;6250922;23;20209;-90
2023/07/02 14:08:07;;;;;;;13.10;4.78;;;;;;;;;;6251811;23;20173;-90
2023/07/02 14:11:14;;;;;;;8.00;4.57;;;;;;;;;;6251037;23;20161;-93
2023/07/02 14:14:20;;;;;;;7.95;4.43;;;;;;;;;;6251712;23;20154;-91
2023/07/02 14:17:40;;;;;;;13.88;5.15;;;;;;;;;;6234866;23;20177;-91
2023/07/02 14:24:06;;;;;;;10.68;4.38;;;;;;;;;;6249422;23;20258;-93
2023/07/02 14:27:11;;;;;;;9.38;4.80;;;;;;;;;;6248818;22;20154;-90
2023/07/02 14:30:17;;;;;;;10.70;5.28;;;;;;;;;;6248707;23;20169;-92
2023/07/02 14:33:25;;;;;;;11.43;5.18;;;;;;;;;;6249072;23;20170;-91
2023/07/02 14:36:31;;;;;;;11.60;4.97;;;;;;;;;;6246861;23;20158;-91
2023/07/02 14:39:39;;;;;;;8.70;4.53;;;;;;;;;;6249992;22;20161;-92
2023/07/02 14:42:45;;;;;;;10.13;4.10;;;;;;;;;;6248488;22;20158;-92
2023/07/02 14:45:51;;;;;;;12.40;5.13;;;;;;;;;;6249018;23;20171;-92
2023/07/02 14:49:00;;;;;;;8.57;4.68;;;;;;;;;;6247130;23;20169;-92
2023/07/02 14:52:06;;;;;;;11.30;5.05;;;;;;;;;;6248954;23;20217;-91
2023/07/02 14:55:11;;;;;;;11.15;4.68;;;;;;;;;;6246940;23;20167;-92
2023/07/02 14:59:00;;;;;;;12.32;4.88;;;;;;;;;;6248654;22;20213;-90
2023/07/02 15:02:06;;;;;;;9.93;4.93;;;;;;;;;;6248387;23;20186;-92
2023/07/02 15:05:21;;;;;;;15.27;5.50;;;;;;;;;;6248311;23;20158;-91
2023/07/02 15:08:28;;;;;;;8.43;4.55;;;;;;;;;;6248371;22;20198;-91
2023/07/02 15:11:34;;;;;;;10.32;4.57;;;;;;;;;;6248319;22;20170;-91
2023/07/02 15:14:40;;;;;;;9.02;5.07;;;;;;;;;;6247559;23;20179;-91
2023/07/02 15:17:45;;;;;;;10.15;5.10;;;;;;;;;;6245119;23;20195;-90
2023/07/02 15:20:56;;;;;;;12.60;5.45;;;;;;;;;;6246066;23;20162;-91
2023/07/02 15:24:05;;;;;;;11.82;5.28;;;;;;;;;;6245854;22;20149;-90
2023/07/02 15:27:12;;;;;;;16.52;5.32;;;;;;;;;;6247145;22;20199;-90
2023/07/02 15:30:18;;;;;;;11.20;5.65;;;;;;;;;;6245048;23;20167;-91
2023/07/02 15:33:23;;;;;;;14.52;5.00;;;;;;;;;;6245097;23;20211;-91
2023/07/02 15:36:35;;;;;;;10.65;5.40;;;;;;;;;;6244984;23;20174;-90
2023/07/02 15:39:42;;;;;;;9.68;5.20;;;;;;;;;;6246374;22;20150;-91
2023/07/02 15:42:53;;;;;;;11.02;5.57;;;;;;;;;;6246888;23;20174;-90
2023/07/02 15:45:59;;;;;;;11.02;5.13;;;;;;;;;;6247365;23;20163;-92
2023/07/02 15:49:07;;;;;;;11.13;5.50;;;;;;;;;;6243448;23;20166;-91
2023/07/02 15:52:14;;;;;;;15.18;5.55;;;;;;;;;;6248268;22;20221;-92
2023/07/02 15:55:20;;;;;;;14.35;5.85;;;;;;;;;;6246783;23;20178;-91
2023/07/02 15:58:25;;;;;;;12.63;5.80;;;;;;;;;;6245507;23;20178;-90
2023/07/02 16:01:37;;;;;;;13.57;6.90;;;;;;;;;;6248448;23;20166;-91
2023/07/02 16:04:46;;;;;;;10.98;5.53;;;;;;;;;;6247968;23;20270;-91
2023/07/02 16:07:55;;;;;;;11.05;6.00;;;;;;;;;;6246636;23;20169;-90
2023/07/02 16:11:01;;;;;;;15.50;6.80;;;;;;;;;;6244537;23;20167;-92
2023/07/02 16:14:07;;;;;;;18.50;6.85;;;;;;;;;;6244187;22;20252;-90
2023/07/02 16:17:14;;;;;;;15.05;6.25;;;;;;;;;;6243790;23;20167;-90
2023/07/02 16:20:19;;;;;;;15.43;7.47;;;;;;;;;;6243607;23;20165;-90
2023/07/02 16:23:26;;;;;;;14.45;7.53;;;;;;;;;;6245702;22;20163;-91
2023/07/02 16:26:31;;;;;;;19.73;8.05;;;;;;;;;;6245546;23;20601;-91
2023/07/02 16:29:37;;;;;;;16.08;7.65;;;;;;;;;;6244987;23;20225;-91
2023/07/02 16:32:42;;;;;;;14.38;7.22;;;;;;;;;;6246187;23;20170;-89
2023/07/02 16:35:48;;;;;;;14.73;7.40;;;;;;;;;;6247898;22;20165;-91
2023/07/02 16:39:04;;;;;;;23.00;7.57;;;;;;;;;;6247008;23;20227;-91
2023/07/02 16:42:12;;;;;;;15.68;7.30;;;;;;;;;;6245889;22;20187;-92
2023/07/02 16:45:17;;;;;;;17.65;8.00;;;;;;;;;;6245202;22;20190;-90
2023/07/02 16:48:23;;;;;;;15.57;7.55;;;;;;;;;;6247313;22;20178;-92
2023/07/02 16:51:28;;;;;;;12.70;6.63;;;;;;;;;;6246698;23;20178;-92
2023/07/02 16:54:35;;;;;;;17.08;7.38;;;;;;;;;;6249317;23;20198;-92
2023/07/02 16:57:40;;;;;;;14.40;7.90;;;;;;;;;;6247353;23;20147;-92
2023/07/02 17:00:46;;;;;;;16.90;8.07;;;;;;;;;;6246523;22;20167;-92
2023/07/02 17:03:54;;;;;;;17.90;8.18;;;;;;;;;;6247514;23;20177;-90
2023/07/02 17:07:01;;;;;;;13.45;7.15;;;;;;;;;;6246788;23;20225;-92
2023/07/02 17:10:08;;;;;;;16.17;8.30;;;;;;;;;;6246417;23;20174;-91
2023/07/02 17:13:14;;;;;;;15.77;7.70;;;;;;;;;;6247010;23;20158;-91
2023/07/02 17:16:20;;;;;;;22.42;8.80;;;;;;;;;;6246511;23;20162;-91
2023/07/02 17:19:29;;;;;;;19.33;8.77;;;;;;;;;;6247063;22;20289;-90
2023/07/02 17:22:35;;;;;;;16.23;7.50;;;;;;;;;;6248209;22;20210;-93
2023/07/02 17:25:52;;;;;;;17.20;7.88;;;;;;;;;;6249151;23;20146;-91
2023/07/02 17:28:58;;;;;;;16.70;7.75;;;;;;;;;;6250875;23;20175;-91
2023/07/02 17:32:10;;;;;;;18.35;7.47;;;;;;;;;;6250252;23;20212;-91
2023/07/02 17:35:15;;;;;;;17.70;7.95;;;;;;;;;;6249642;22;20190;-91
2023/07/02 17:38:20;;;;;;;16.55;8.52;;;;;;;;;;6250907;22;20218;-92
2023/07/02 17:41:28;;;;;;;21.25;8.75;;;;;;;;;;6246446;23;20501;-91
2023/07/02 17:44:35;;;;;;;19.27;9.05;;;;;;;;;;6247258;23;20211;-89
2023/07/02 17:47:41;;;;;;;18.63;9.27;;;;;;;;;;6247647;22;20185;-90
2023/07/02 17:50:55;;;;;;;18.77;9.30;;;;;;;;;;6248244;22;20190;-91
2023/07/02 17:54:01;;;;;;;21.85;10.20;;;;;;;;;;6249018;23;20167;-92
2023/07/02 17:57:21;;;;;;;20.55;9.88;;;;;;;;;;6249421;23;20170;-91
2023/07/02 18:00:28;;;;;;;26.90;12.55;;;;;;;;;;6245370;22;20166;-91
2023/07/02 18:03:34;;;;;;;17.13;9.50;;;;;;;;;;6249867;23;20222;-91
2023/07/02 18:06:43;;;;;;;22.52;9.90;;;;;;;;;;6246758;23;20166;-92
2023/07/02 18:09:50;;;;;;;16.77;8.93;;;;;;;;;;6246880;23;20182;-93
2023/07/02 18:13:04;;;;;;;21.15;9.68;;;;;;;;;;6248436;23;20197;-93
2023/07/02 18:20:01;;;;;;;17.75;8.98;;;;;;;;;;6248611;23;20271;-92
2023/07/02 18:23:09;;;;;;;20.45;9.98;;;;;;;;;;6249970;23;20174;-91
2023/07/02 18:26:16;;;;;;;19.75;9.70;;;;;;;;;;6251320;22;20214;-91
2023/07/02 18:29:22;;;;;;;21.60;9.25;;;;;;;;;;6247571;22;20167;-91
2023/07/02 18:32:29;;;;;;;18.83;9.25;;;;;;;;;;6248273;23;20243;-92
2023/07/02 18:35:38;;;;;;;19.35;9.43;;;;;;;;;;6248963;23;20220;-92
2023/07/02 23:46:45;;;;;;;28.35;11.98;;;;;;;;;;6237064;22;20219;-92
2023/07/02 23:49:51;;;;;;;26.95;12.43;;;;;;;;;;6243602;23;20171;-93
2023/07/02 23:52:56;;;;;;;25.75;12.32;;;;;;;;;;6246025;23;20146;-91
2023/07/02 23:56:01;;;;;;;29.17;12.52;;;;;;;;;;6244564;22;20182;-91
